createdAt,value
2016-12-23T00:12:44.261Z,0
2016-12-23T00:26:18.538Z,0
2016-12-23T00:29:07.261Z,0
2016-12-23T00:29:58.109Z,0
2016-12-23T00:30:46.626Z,0
2016-12-23T00:31:35.272Z,0
2016-12-23T00:32:23.780Z,0
2016-12-23T00:36:48.725Z,0
2016-12-23T00:45:37.713Z,0
2016-12-23T00:46:26.084Z,0
2016-12-23T00:47:16.644Z,0
2016-12-23T00:48:04.092Z,0
2016-12-23T00:48:52.786Z,0
2016-12-23T00:49:42.528Z,0
2016-12-23T01:17:23.020Z,0
2016-12-23T01:23:28.058Z,0
2016-12-23T01:24:16.906Z,0
2016-12-23T01:25:06.247Z,0
2016-12-23T01:25:54.956Z,0
2016-12-23T01:26:44.239Z,0
2016-12-23T01:27:32.893Z,0
2016-12-23T01:28:21.562Z,0
2016-12-23T03:11:11.464Z,0
2016-12-23T03:12:00.675Z,0
2016-12-23T03:12:49.117Z,0
2016-12-23T03:13:38.160Z,0
2016-12-23T03:23:53.042Z,0
2016-12-23T03:24:42.237Z,0
2016-12-23T03:25:31.080Z,0
2016-12-23T03:26:20.827Z,0
2016-12-23T03:27:08.153Z,0
2016-12-23T03:30:59.073Z,0
2016-12-23T03:33:38.580Z,0
2016-12-23T03:34:27.220Z,0
2016-12-23T03:36:53.137Z,0
2016-12-23T03:37:41.775Z,0
2016-12-23T03:40:00.855Z,0
2016-12-23T03:40:49.491Z,0
2016-12-23T03:41:38.665Z,0
2016-12-23T03:42:27.393Z,0
2016-12-23T03:43:16.099Z,0
2016-12-23T03:44:05.241Z,0
2016-12-23T03:44:54.829Z,0
2016-12-23T03:47:17.576Z,0
2016-12-23T03:48:06.712Z,0
2016-12-23T03:48:55.606Z,0
2016-12-23T03:49:43.998Z,0
2016-12-23T03:50:33.958Z,0
2016-12-23T03:51:23.207Z,0
2016-12-23T03:52:11.347Z,0
2016-12-23T03:53:00.034Z,0
2016-12-23T03:53:48.444Z,0
2016-12-23T03:54:37.732Z,0
2016-12-23T03:55:26.772Z,0
2016-12-23T03:56:15.260Z,0
2016-12-23T03:57:06.811Z,0
2016-12-23T03:57:55.867Z,0
2016-12-23T03:58:45.099Z,0
2016-12-23T04:04:12.088Z,0
2016-12-23T04:06:17.549Z,0
2016-12-23T04:07:08.064Z,0
2016-12-23T04:07:56.419Z,0
2016-12-23T04:08:45.142Z,0
2016-12-23T04:09:33.678Z,0
2016-12-23T04:10:26.061Z,0
2016-12-23T04:11:16.663Z,0
2016-12-23T04:12:07.434Z,0
2016-12-23T04:13:00.096Z,0
2016-12-23T04:13:48.013Z,0
2016-12-23T04:14:38.894Z,0
2016-12-23T04:15:26.081Z,0
2016-12-23T04:16:16.728Z,0
2016-12-23T04:17:11.750Z,0
2016-12-23T04:18:06.013Z,0
2016-12-23T04:18:54.584Z,0
2016-12-23T04:19:44.530Z,0
2016-12-23T04:25:12.612Z,0
2016-12-23T04:26:01.039Z,0
2016-12-23T04:26:49.706Z,0
2016-12-23T04:27:38.120Z,0
2016-12-23T04:28:26.715Z,0
2016-12-23T04:29:15.585Z,0
2016-12-23T04:30:03.880Z,0
2016-12-23T04:30:52.440Z,0
2016-12-23T04:31:41.088Z,0
2016-12-23T04:32:29.577Z,0
2016-12-23T04:33:17.747Z,0
2016-12-23T04:34:06.456Z,0
2016-12-23T04:36:28.310Z,0
2016-12-23T04:40:53.005Z,0
2016-12-23T04:41:51.894Z,0
2016-12-23T04:44:37.567Z,0
2016-12-23T04:45:25.371Z,0
2016-12-23T04:47:29.155Z,0
2016-12-23T04:48:17.860Z,0
2016-12-23T04:49:06.380Z,0
2016-12-23T04:49:55.072Z,0
2016-12-23T04:50:43.137Z,0
2016-12-23T04:51:31.840Z,0
2016-12-23T04:52:20.022Z,0
2016-12-23T04:53:08.398Z,0
2016-12-23T04:57:13.457Z,0
2016-12-23T04:58:04.459Z,0
2016-12-23T04:58:57.396Z,0
2016-12-23T04:59:48.096Z,0
2016-12-23T05:00:36.569Z,0
2016-12-23T05:01:25.894Z,0
2016-12-23T05:02:16.274Z,0
2016-12-23T05:03:04.287Z,0
2016-12-23T05:04:00.666Z,0
2016-12-23T05:04:53.676Z,0
2016-12-23T05:05:48.685Z,0
2016-12-23T05:06:31.802Z,0
2016-12-23T05:07:28.760Z,0
2016-12-23T05:08:28.669Z,0
2016-12-23T05:09:26.706Z,0
2016-12-23T05:10:11.958Z,0
2016-12-23T05:10:52.425Z,0
2016-12-23T05:11:33.535Z,0
2016-12-23T05:12:13.990Z,0
2016-12-23T05:12:54.497Z,0
2016-12-23T05:13:35.005Z,0
2016-12-23T05:14:15.493Z,0
2016-12-23T05:14:55.988Z,0
2016-12-23T05:15:36.453Z,0
2016-12-23T05:16:16.948Z,0
2016-12-23T05:16:57.431Z,0
2016-12-23T05:17:37.896Z,0
2016-12-23T05:18:18.443Z,0
2016-12-23T05:18:58.947Z,0
2016-12-23T05:19:39.459Z,0
2016-12-23T05:20:19.987Z,0
2016-12-23T05:21:00.523Z,0
2016-12-23T05:21:41.011Z,0
2016-12-23T05:22:21.506Z,0
2016-12-23T05:23:02.015Z,0
2016-12-23T05:23:42.484Z,0
2016-12-23T05:24:22.998Z,0
2016-12-23T05:25:04.534Z,0
2016-12-23T05:25:44.974Z,0
2016-12-23T05:26:25.499Z,0
2016-12-23T05:27:05.927Z,0
2016-12-23T05:27:46.438Z,0
2016-12-23T05:28:26.947Z,0
2016-12-23T05:29:07.482Z,0
2016-12-23T05:29:47.972Z,0
2016-12-23T05:30:28.483Z,0
2016-12-23T05:31:09.003Z,0
2016-12-23T05:31:49.581Z,0
2016-12-23T05:32:30.103Z,0
2016-12-23T05:33:10.635Z,0
2016-12-23T05:33:51.172Z,0
2016-12-23T05:34:32.718Z,0
2016-12-23T05:35:13.176Z,0
2016-12-23T05:35:53.702Z,0
2016-12-23T05:36:34.121Z,0
2016-12-23T05:37:14.606Z,0
2016-12-23T05:37:55.081Z,0
2016-12-23T05:38:35.523Z,0
2016-12-23T05:39:16.013Z,0
2016-12-23T05:39:56.463Z,0
2016-12-23T05:40:36.991Z,0
2016-12-23T05:41:17.477Z,0
2016-12-23T05:41:58.008Z,0
2016-12-23T05:42:38.743Z,0
2016-12-23T05:43:19.380Z,0
2016-12-23T05:43:59.852Z,0
2016-12-23T05:44:40.390Z,0
2016-12-23T05:45:20.829Z,0
2016-12-23T05:46:01.270Z,0
2016-12-23T05:46:41.758Z,0
2016-12-23T05:47:22.225Z,0
2016-12-23T05:48:02.701Z,0
2016-12-23T05:48:43.250Z,0
2016-12-23T05:49:23.714Z,0
2016-12-23T05:50:04.189Z,0
2016-12-23T05:50:44.659Z,0
2016-12-23T05:51:25.068Z,0
2016-12-23T05:52:05.571Z,0
2016-12-23T05:52:45.996Z,0
2016-12-23T05:53:26.484Z,0
2016-12-23T05:54:06.958Z,0
2016-12-23T05:54:47.427Z,0
2016-12-23T05:55:27.914Z,0
2016-12-23T05:56:08.362Z,0
2016-12-23T05:56:48.903Z,0
2016-12-23T05:57:29.389Z,0
2016-12-23T05:58:09.834Z,0
2016-12-23T05:58:50.314Z,0
2016-12-23T05:59:30.899Z,0
2016-12-23T06:00:11.393Z,0
2016-12-23T06:00:51.867Z,0
2016-12-23T06:01:32.364Z,0
2016-12-23T06:02:12.856Z,0
2016-12-23T06:02:53.292Z,0
2016-12-23T06:03:33.806Z,0
2016-12-23T06:04:14.352Z,0
2016-12-23T06:04:54.773Z,0
2016-12-23T06:05:35.282Z,0
2016-12-23T06:06:15.730Z,0
2016-12-23T06:06:56.197Z,0
2016-12-23T06:07:36.721Z,0
2016-12-23T06:08:17.207Z,0
2016-12-23T06:08:57.663Z,0
2016-12-23T06:09:38.164Z,0
2016-12-23T06:10:18.677Z,0
2016-12-23T06:10:59.185Z,0
2016-12-23T06:11:39.652Z,0
2016-12-23T06:12:20.100Z,0
2016-12-23T06:13:00.627Z,0
2016-12-23T06:13:41.129Z,0
2016-12-23T06:14:21.543Z,0
2016-12-23T06:15:02.023Z,0
2016-12-23T06:15:42.631Z,0
2016-12-23T06:16:23.099Z,0
2016-12-23T06:17:03.616Z,0
2016-12-23T06:17:44.054Z,0
2016-12-23T06:18:24.564Z,0
2016-12-23T06:19:05.096Z,0
2016-12-23T06:19:45.592Z,0
2016-12-23T06:20:26.099Z,0
2016-12-23T06:21:06.535Z,0
2016-12-23T06:21:47.017Z,0
2016-12-23T06:22:27.444Z,0
2016-12-23T06:23:07.956Z,0
2016-12-23T06:23:48.425Z,0
2016-12-23T06:24:28.962Z,0
2016-12-23T06:25:09.477Z,0
2016-12-23T06:25:49.955Z,0
2016-12-23T06:26:30.447Z,0
2016-12-23T06:27:10.903Z,0
2016-12-23T06:27:51.345Z,0
2016-12-23T06:28:31.828Z,0
2016-12-23T06:29:12.313Z,0
2016-12-23T06:29:52.812Z,0
2016-12-23T06:30:33.292Z,0
2016-12-23T06:31:13.767Z,0
2016-12-23T06:31:54.214Z,0
2016-12-23T06:32:34.680Z,0
2016-12-23T06:33:15.145Z,0
2016-12-23T06:33:55.637Z,0
2016-12-23T06:34:36.114Z,0
2016-12-23T06:35:16.579Z,0
2016-12-23T06:35:57.058Z,0
2016-12-23T06:36:37.977Z,0
2016-12-23T06:37:18.391Z,0
2016-12-23T06:37:58.917Z,0
2016-12-23T06:38:39.378Z,0
2016-12-23T06:39:19.865Z,0
2016-12-23T06:40:00.318Z,0
2016-12-23T06:40:40.755Z,0
2016-12-23T06:41:21.229Z,0
2016-12-23T06:42:01.687Z,0
2016-12-23T06:42:42.181Z,0
2016-12-23T06:43:22.650Z,0
2016-12-23T06:44:03.138Z,0
2016-12-23T06:44:43.640Z,0
2016-12-23T06:45:24.072Z,0
2016-12-23T06:46:04.553Z,0
2016-12-23T06:46:45.035Z,0
2016-12-23T06:47:25.500Z,0
2016-12-23T06:48:06.012Z,0
2016-12-23T06:48:46.671Z,0
2016-12-23T06:49:27.143Z,0
2016-12-23T06:50:07.642Z,0
2016-12-23T06:50:48.130Z,0
2016-12-23T06:51:28.683Z,0
2016-12-23T06:52:09.221Z,0
2016-12-23T06:52:49.731Z,0
2016-12-23T06:53:30.263Z,0
2016-12-23T06:54:10.780Z,0
2016-12-23T06:54:51.297Z,0
2016-12-23T06:55:31.990Z,0
2016-12-23T06:56:12.679Z,0
2016-12-23T06:56:53.358Z,0
2016-12-23T06:57:33.867Z,0
2016-12-23T06:58:14.898Z,0
2016-12-23T06:58:55.567Z,0
2016-12-23T06:59:37.032Z,0
2016-12-23T07:00:17.548Z,0
2016-12-23T07:00:58.074Z,0
2016-12-23T07:01:38.573Z,0
2016-12-23T07:02:19.073Z,0
2016-12-23T07:02:59.571Z,0
2016-12-23T07:03:40.066Z,4
2016-12-23T07:04:20.540Z,4
2016-12-23T07:05:01.035Z,0
2016-12-23T07:05:41.493Z,0
2016-12-23T07:06:21.968Z,0
2016-12-23T07:07:02.486Z,4
2016-12-23T07:07:42.943Z,4
2016-12-23T07:08:23.447Z,4
2016-12-23T07:09:03.909Z,4
2016-12-23T07:09:44.406Z,4
2016-12-23T07:10:24.922Z,4
2016-12-23T07:11:05.435Z,4
2016-12-23T07:11:45.886Z,4
2016-12-23T07:12:26.396Z,4
2016-12-23T07:13:06.886Z,4
2016-12-23T07:13:47.367Z,8
2016-12-23T07:14:27.878Z,8
2016-12-23T07:15:08.395Z,8
2016-12-23T07:15:48.877Z,8
2016-12-23T07:16:29.372Z,12
2016-12-23T07:17:09.879Z,12
2016-12-23T07:17:50.366Z,12
2016-12-23T07:18:30.866Z,16
2016-12-23T07:19:11.337Z,16
2016-12-23T07:19:51.833Z,16
2016-12-23T07:20:32.343Z,20
2016-12-23T07:21:12.820Z,20
2016-12-23T07:21:53.945Z,20
2016-12-23T07:22:34.262Z,24
2016-12-23T07:23:14.753Z,28
2016-12-23T07:23:55.254Z,28
2016-12-23T07:24:35.714Z,28
2016-12-23T07:25:16.512Z,32
2016-12-23T07:25:57.049Z,36
2016-12-23T07:26:37.568Z,36
2016-12-23T07:27:18.155Z,40
2016-12-23T07:27:58.716Z,44
2016-12-23T07:28:39.267Z,48
2016-12-23T07:29:19.980Z,48
2016-12-23T07:30:00.436Z,56
2016-12-23T07:30:41.046Z,56
2016-12-23T07:31:21.484Z,60
2016-12-23T07:32:01.999Z,68
2016-12-23T07:32:42.522Z,68
2016-12-23T07:33:23.022Z,72
2016-12-23T07:34:03.518Z,84
2016-12-23T07:34:45.107Z,84
2016-12-23T07:35:26.959Z,88
2016-12-23T07:36:07.377Z,92
2016-12-23T07:36:47.882Z,96
2016-12-23T07:37:28.362Z,104
2016-12-23T07:38:08.907Z,108
2016-12-23T07:38:49.396Z,112
2016-12-23T07:39:29.896Z,120
2016-12-23T07:40:10.377Z,124
2016-12-23T07:40:50.860Z,132
2016-12-23T07:41:31.335Z,136
2016-12-23T07:42:11.840Z,144
2016-12-23T07:42:52.363Z,144
2016-12-23T07:43:32.846Z,152
2016-12-23T07:44:13.505Z,152
2016-12-23T07:44:54.130Z,156
2016-12-23T07:45:34.658Z,148
2016-12-23T07:46:15.046Z,144
2016-12-23T07:46:55.585Z,136
2016-12-23T07:47:36.363Z,132
2016-12-23T07:48:17.017Z,132
2016-12-23T07:48:57.979Z,136
2016-12-23T07:49:41.851Z,164
2016-12-23T07:50:22.478Z,200
2016-12-23T07:51:03.165Z,228
2016-12-23T07:51:43.962Z,228
2016-12-23T07:52:24.730Z,232
2016-12-23T07:53:06.204Z,236
2016-12-23T07:53:47.671Z,244
2016-12-23T07:54:28.280Z,260
2016-12-23T07:55:08.838Z,280
2016-12-23T07:55:49.285Z,300
2016-12-23T07:56:29.753Z,316
2016-12-23T07:57:10.492Z,328
2016-12-23T07:59:33.435Z,392
2016-12-23T08:00:18.284Z,424
2016-12-23T08:00:58.784Z,444
2016-12-23T08:01:39.288Z,476
2016-12-23T08:02:19.834Z,496
2016-12-23T08:03:00.322Z,512
2016-12-23T08:03:40.767Z,532
2016-12-23T08:04:21.260Z,544
2016-12-23T08:05:01.723Z,560
2016-12-23T08:05:42.350Z,576
2016-12-23T08:06:23.817Z,592
2016-12-23T08:07:04.373Z,612
2016-12-23T08:07:44.845Z,624
2016-12-23T08:08:25.308Z,640
2016-12-23T08:09:05.778Z,656
2016-12-23T08:09:46.302Z,676
2016-12-23T08:10:26.744Z,700
2016-12-23T08:11:07.291Z,720
2016-12-23T08:11:47.757Z,748
2016-12-23T08:12:28.262Z,792
2016-12-23T08:13:08.724Z,816
2016-12-23T08:13:49.195Z,836
2016-12-23T08:14:29.708Z,840
2016-12-23T08:15:10.202Z,840
2016-12-23T08:15:50.947Z,840
2016-12-23T08:16:31.451Z,828
2016-12-23T08:17:11.926Z,812
2016-12-23T08:17:52.393Z,792
2016-12-23T08:18:32.861Z,800
2016-12-23T08:19:13.428Z,808
2016-12-23T08:19:53.875Z,780
2016-12-23T08:20:34.348Z,772
2016-12-23T08:21:14.826Z,784
2016-12-23T08:21:55.413Z,784
2016-12-23T08:22:35.955Z,836
2016-12-23T08:23:16.449Z,920
2016-12-23T08:23:57.850Z,912
2016-12-23T08:24:38.298Z,932
2016-12-23T08:25:18.779Z,964
2016-12-23T08:25:59.283Z,992
2016-12-23T08:26:40.516Z,1036
2016-12-23T08:27:21.025Z,1040
2016-12-23T08:28:01.612Z,1048
2016-12-23T08:28:42.202Z,1048
2016-12-23T08:29:23.021Z,1060
2016-12-23T08:30:03.478Z,1088
2016-12-23T08:30:43.971Z,1132
2016-12-23T08:31:24.435Z,1200
2016-12-23T08:32:04.929Z,1224
2016-12-23T08:32:45.401Z,1236
2016-12-23T08:33:25.993Z,1220
2016-12-23T08:34:06.426Z,1168
2016-12-23T08:34:46.944Z,1184
2016-12-23T08:35:27.429Z,1252
2016-12-23T08:36:07.901Z,1324
2016-12-23T08:36:48.415Z,1368
2016-12-23T08:37:28.880Z,1420
2016-12-23T08:38:09.348Z,1472
2016-12-23T08:38:49.821Z,1504
2016-12-23T08:39:30.272Z,1848
2016-12-23T08:40:10.765Z,2112
2016-12-23T08:40:51.213Z,2412
2016-12-23T08:41:31.834Z,1920
2016-12-23T08:42:12.367Z,1740
2016-12-23T08:42:52.843Z,1652
2016-12-23T08:43:33.326Z,1648
2016-12-23T08:44:13.821Z,1572
2016-12-23T08:44:54.309Z,1452
2016-12-23T08:45:34.784Z,1448
2016-12-23T08:46:15.320Z,1496
2016-12-23T08:46:55.864Z,1624
2016-12-23T08:47:36.406Z,1696
2016-12-23T08:48:16.915Z,1620
2016-12-23T08:48:57.394Z,1628
2016-12-23T08:49:37.865Z,1524
2016-12-23T08:50:18.324Z,1500
2016-12-23T08:50:58.858Z,1688
2016-12-23T08:51:39.493Z,1836
2016-12-23T08:52:19.966Z,1968
2016-12-23T08:53:00.458Z,1904
2016-12-23T08:53:40.960Z,1936
2016-12-23T08:54:21.459Z,2012
2016-12-23T08:55:01.941Z,2324
2016-12-23T08:55:42.508Z,2552
2016-12-23T08:56:23.022Z,2792
2016-12-23T08:57:03.493Z,2736
2016-12-23T08:57:43.958Z,2912
2016-12-23T08:58:24.422Z,2832
2016-12-23T08:59:05.835Z,2932
2016-12-23T08:59:46.341Z,2924
2016-12-23T09:00:26.864Z,2940
2016-12-23T09:01:07.311Z,2940
2016-12-23T09:01:47.794Z,2944
2016-12-23T09:02:28.274Z,2952
2016-12-23T09:03:08.786Z,2984
2016-12-23T09:03:49.259Z,3024
2016-12-23T09:04:29.789Z,3052
2016-12-23T09:05:10.261Z,3068
2016-12-23T09:05:50.697Z,3064
2016-12-23T09:06:31.200Z,3052
2016-12-23T09:07:11.691Z,3052
2016-12-23T09:07:52.217Z,3040
2016-12-23T09:08:32.701Z,3028
2016-12-23T09:09:13.212Z,3000
2016-12-23T09:09:53.763Z,3000
2016-12-23T09:10:34.281Z,3068
2016-12-23T09:11:14.811Z,3216
2016-12-23T09:11:55.283Z,3360
2016-12-23T09:12:35.817Z,3152
2016-12-23T09:13:16.279Z,3220
2016-12-23T09:13:56.784Z,3248
2016-12-23T09:14:37.281Z,3284
2016-12-23T09:15:17.842Z,3192
2016-12-23T09:15:58.399Z,3068
2016-12-23T09:16:39.892Z,3080
2016-12-23T09:17:20.367Z,3112
2016-12-23T09:18:00.973Z,3132
2016-12-23T09:18:41.704Z,3000
2016-12-23T09:19:22.414Z,2884
2016-12-23T09:20:03.227Z,2780
2016-12-23T09:20:43.743Z,2716
2016-12-23T09:21:24.249Z,2772
2016-12-23T09:22:05.326Z,2668
2016-12-23T09:22:46.732Z,2696
2016-12-23T09:23:27.240Z,2588
2016-12-23T09:24:07.695Z,2588
2016-12-23T09:24:48.176Z,2568
2016-12-23T09:25:28.801Z,2556
2016-12-23T09:26:09.323Z,2532
2016-12-23T09:26:50.004Z,2580
2016-12-23T09:27:30.654Z,2672
2016-12-23T09:28:12.128Z,2572
2016-12-23T09:28:52.788Z,2604
2016-12-23T09:29:34.330Z,2788
2016-12-23T09:30:15.092Z,2836
2016-12-23T09:30:55.744Z,2684
2016-12-23T09:31:37.186Z,2728
2016-12-23T09:32:17.819Z,2944
2016-12-23T09:32:58.395Z,3008
2016-12-23T09:33:39.099Z,2968
2016-12-23T09:34:19.654Z,3020
2016-12-23T09:35:00.344Z,3016
2016-12-23T09:35:42.079Z,3104
2016-12-23T09:36:24.746Z,2996
2016-12-23T09:37:06.303Z,3196
2016-12-23T09:37:49.462Z,3512
2016-12-23T09:38:31.330Z,3540
2016-12-23T09:39:13.376Z,3616
2016-12-23T09:39:56.968Z,3524
2016-12-23T09:40:41.363Z,3604
2016-12-23T09:41:26.162Z,3708
2016-12-23T09:42:06.799Z,3580
2016-12-23T09:42:47.859Z,3672
2016-12-23T09:43:28.777Z,3596
2016-12-23T09:44:09.379Z,3468
2016-12-23T09:44:49.850Z,3376
2016-12-23T09:45:30.799Z,3356
2016-12-23T09:46:11.344Z,3376
2016-12-23T09:46:51.919Z,3320
2016-12-23T09:47:32.394Z,3108
2016-12-23T09:48:12.934Z,3044
2016-12-23T09:48:53.387Z,3120
2016-12-23T09:49:33.875Z,2948
2016-12-23T09:50:14.405Z,2856
2016-12-23T09:50:54.891Z,2788
2016-12-23T09:51:35.395Z,2760
2016-12-23T09:52:15.907Z,2728
2016-12-23T09:52:56.500Z,2724
2016-12-23T09:53:37.026Z,2632
2016-12-23T09:54:17.542Z,2452
2016-12-23T09:54:58.109Z,2540
2016-12-23T09:55:38.591Z,2664
2016-12-23T09:56:19.091Z,2692
2016-12-23T09:56:59.574Z,2640
2016-12-23T09:57:40.188Z,2572
2016-12-23T09:58:20.709Z,2560
2016-12-23T09:59:01.917Z,2836
2016-12-23T09:59:42.442Z,2540
2016-12-23T10:00:22.948Z,2512
2016-12-23T10:01:03.453Z,2892
2016-12-23T10:03:22.063Z,2684
2016-12-23T10:04:21.007Z,2980
2016-12-23T10:05:01.552Z,3084
2016-12-23T10:05:41.989Z,3676
2016-12-23T10:06:25.163Z,3340
2016-12-23T10:07:08.973Z,3216
2016-12-23T10:07:49.469Z,3136
2016-12-23T10:08:30.077Z,3184
2016-12-23T10:09:10.563Z,3204
2016-12-23T10:09:51.034Z,3180
2016-12-23T10:10:31.549Z,3084
2016-12-23T10:11:12.042Z,2832
2016-12-23T10:11:52.541Z,2520
2016-12-23T10:12:39.101Z,2484
2016-12-23T10:13:26.661Z,2508
2016-12-23T10:14:15.065Z,2712
2016-12-23T10:14:57.849Z,2728
2016-12-23T10:15:38.346Z,2600
2016-12-23T10:16:18.879Z,2392
2016-12-23T10:16:59.324Z,2068
2016-12-23T10:17:39.826Z,1992
2016-12-23T10:18:20.519Z,2568
2016-12-23T10:19:00.956Z,2916
2016-12-23T10:19:41.449Z,3100
2016-12-23T10:20:21.930Z,3256
2016-12-23T10:21:02.700Z,3088
2016-12-23T10:21:43.173Z,2444
2016-12-23T10:22:23.807Z,2048
2016-12-23T10:23:04.281Z,1896
2016-12-23T10:23:44.765Z,2024
2016-12-23T10:24:25.276Z,2056
2016-12-23T10:25:05.767Z,2264
2016-12-23T10:25:46.274Z,2740
2016-12-23T10:26:26.897Z,2908
2016-12-23T10:27:08.156Z,2956
2016-12-23T10:27:48.658Z,2808
2016-12-23T10:28:29.123Z,2904
2016-12-23T10:29:09.633Z,2756
2016-12-23T10:29:50.111Z,2744
2016-12-23T10:30:30.623Z,2864
2016-12-23T10:31:11.137Z,2732
2016-12-23T10:31:51.646Z,3136
2016-12-23T10:32:32.900Z,3792
2016-12-23T10:33:13.094Z,3296
2016-12-23T10:33:53.572Z,2508
2016-12-23T10:34:34.111Z,2604
2016-12-23T10:35:14.646Z,2516
2016-12-23T10:35:55.134Z,2688
2016-12-23T10:36:35.626Z,2880
2016-12-23T10:37:16.096Z,3004
2016-12-23T10:37:56.560Z,2956
2016-12-23T10:38:38.123Z,2984
2016-12-23T10:39:19.585Z,3304
2016-12-23T10:40:00.045Z,3552
2016-12-23T10:40:41.291Z,3272
2016-12-23T10:41:21.811Z,2328
2016-12-23T10:42:02.263Z,2496
2016-12-23T10:42:42.759Z,2536
2016-12-23T10:43:23.294Z,2160
2016-12-23T10:44:03.762Z,2492
2016-12-23T10:44:44.285Z,2312
2016-12-23T10:45:24.752Z,2564
2016-12-23T10:46:05.237Z,2476
2016-12-23T10:46:48.334Z,2804
2016-12-23T10:47:28.876Z,3408
2016-12-23T10:48:09.475Z,3456
2016-12-23T10:48:49.922Z,3280
2016-12-23T10:49:30.481Z,3000
2016-12-23T10:50:10.942Z,3260
2016-12-23T10:50:51.456Z,2772
2016-12-23T10:51:31.918Z,2400
2016-12-23T10:52:12.386Z,2944
2016-12-23T10:52:52.891Z,4004
2016-12-23T10:53:33.381Z,4024
2016-12-23T10:54:13.848Z,3076
2016-12-23T10:54:54.454Z,3180
2016-12-23T10:55:35.050Z,4324
2016-12-23T10:56:21.906Z,4796
2016-12-23T10:57:02.163Z,3896
2016-12-23T10:57:42.678Z,3100
2016-12-23T10:58:24.901Z,2784
2016-12-23T10:59:13.793Z,2668
2016-12-23T10:59:59.240Z,2284
2016-12-23T11:00:39.682Z,1988
2016-12-23T11:01:20.207Z,2936
2016-12-23T11:02:00.684Z,3360
2016-12-23T11:02:41.158Z,3168
2016-12-23T11:03:21.632Z,2472
2016-12-23T11:04:02.130Z,1796
2016-12-23T11:04:42.620Z,1472
2016-12-23T11:05:23.142Z,1532
2016-12-23T11:06:03.629Z,1392
2016-12-23T11:06:44.093Z,1696
2016-12-23T11:07:24.653Z,1840
2016-12-23T11:08:05.097Z,1956
2016-12-23T11:08:45.647Z,1688
2016-12-23T11:09:26.914Z,1420
2016-12-23T11:10:07.513Z,1552
2016-12-23T11:10:48.012Z,1272
2016-12-23T11:11:28.514Z,1320
2016-12-23T11:12:09.042Z,1168
2016-12-23T11:12:49.586Z,1072
2016-12-23T11:13:30.023Z,996
2016-12-23T11:14:10.543Z,1288
2016-12-23T11:14:51.352Z,1440
2016-12-23T11:15:31.771Z,1436
2016-12-23T11:16:12.297Z,1492
2016-12-23T11:16:52.746Z,1820
2016-12-23T11:17:33.445Z,1832
2016-12-23T11:18:13.925Z,3392
2016-12-23T11:18:54.424Z,3248
2016-12-23T11:19:34.904Z,2300
2016-12-23T11:20:15.447Z,1936
2016-12-23T11:20:55.927Z,1904
2016-12-23T11:21:36.517Z,2104
2016-12-23T11:22:17.026Z,2564
2016-12-23T11:22:57.466Z,2260
2016-12-23T11:23:37.970Z,2236
2016-12-23T11:24:18.424Z,1844
2016-12-23T11:24:59.104Z,1996
2016-12-23T11:25:39.595Z,1988
2016-12-23T11:26:20.073Z,2420
2016-12-23T11:27:00.996Z,2712
2016-12-23T11:27:41.496Z,1688
2016-12-23T11:28:21.977Z,1736
2016-12-23T11:29:02.444Z,1592
2016-12-23T11:29:42.942Z,1808
2016-12-23T11:30:23.486Z,1968
2016-12-23T11:31:04.652Z,2040
2016-12-23T11:31:45.002Z,2168
2016-12-23T11:32:27.591Z,3308
2016-12-23T11:33:08.211Z,3440
2016-12-23T11:33:48.695Z,3764
2016-12-23T11:34:29.183Z,3296
2016-12-23T11:35:09.727Z,2276
2016-12-23T11:35:50.179Z,2172
2016-12-23T11:36:30.659Z,2428
2016-12-23T11:37:11.154Z,3048
2016-12-23T11:37:51.676Z,2976
2016-12-23T11:38:32.271Z,1948
2016-12-23T11:39:12.766Z,1640
2016-12-23T11:39:53.409Z,1692
2016-12-23T11:40:34.112Z,1448
2016-12-23T11:41:14.640Z,1640
2016-12-23T11:41:55.247Z,1860
2016-12-23T11:42:35.762Z,1828
2016-12-23T11:43:16.878Z,1672
2016-12-23T11:43:57.570Z,1468
2016-12-23T11:44:38.091Z,1584
2016-12-23T11:45:18.570Z,1492
2016-12-23T11:46:00.359Z,1252
2016-12-23T11:46:40.906Z,1120
2016-12-23T11:47:21.352Z,1128
2016-12-23T11:48:01.812Z,1336
2016-12-23T11:48:42.432Z,1544
2016-12-23T11:49:22.807Z,1916
2016-12-23T11:50:03.356Z,1752
2016-12-23T11:50:43.863Z,1700
2016-12-23T11:51:24.414Z,1328
2016-12-23T11:52:04.903Z,1184
2016-12-23T11:52:45.357Z,1316
2016-12-23T11:53:26.176Z,1396
2016-12-23T11:54:06.745Z,1372
2016-12-23T11:54:47.160Z,1312
2016-12-23T11:55:27.667Z,1116
2016-12-23T11:56:08.256Z,1160
2016-12-23T11:56:48.750Z,1196
2016-12-23T11:57:29.249Z,1220
2016-12-23T11:58:09.855Z,1148
2016-12-23T11:58:50.426Z,1140
2016-12-23T11:59:30.914Z,1092
2016-12-23T12:00:11.384Z,1188
2016-12-23T12:00:51.825Z,1528
2016-12-23T12:01:32.328Z,1400
2016-12-23T12:02:12.835Z,1472
2016-12-23T12:02:53.314Z,1340
2016-12-23T12:03:33.799Z,1196
2016-12-23T12:04:14.354Z,1208
2016-12-23T12:04:54.803Z,1232
2016-12-23T12:05:35.266Z,1116
2016-12-23T12:06:15.912Z,1076
2016-12-23T12:06:56.499Z,1224
2016-12-23T12:07:36.978Z,1296
2016-12-23T12:08:17.453Z,1280
2016-12-23T12:08:57.963Z,1100
2016-12-23T12:09:38.416Z,1036
2016-12-23T12:10:19.050Z,912
2016-12-23T12:10:59.565Z,1048
2016-12-23T12:11:40.147Z,1048
2016-12-23T12:12:20.701Z,1024
2016-12-23T12:13:01.194Z,1112
2016-12-23T12:13:41.695Z,1068
2016-12-23T12:14:22.141Z,1180
2016-12-23T12:15:02.640Z,1408
2016-12-23T12:15:43.090Z,1672
2016-12-23T12:16:23.547Z,1348
2016-12-23T12:17:04.130Z,1340
2016-12-23T12:17:44.646Z,1372
2016-12-23T12:18:25.140Z,1508
2016-12-23T12:19:05.730Z,1592
2016-12-23T12:19:46.275Z,1624
2016-12-23T12:20:26.943Z,1660
2016-12-23T12:21:07.522Z,1544
2016-12-23T12:21:48.055Z,1252
2016-12-23T12:22:28.559Z,1204
2016-12-23T12:23:09.056Z,1204
2016-12-23T12:23:49.535Z,1244
2016-12-23T12:24:29.992Z,1296
2016-12-23T12:25:10.468Z,1292
2016-12-23T12:25:51.126Z,1504
2016-12-23T12:26:31.711Z,1500
2016-12-23T12:27:12.230Z,1696
2016-12-23T12:27:52.937Z,1552
2016-12-23T12:28:33.530Z,1356
2016-12-23T12:29:14.024Z,1496
2016-12-23T12:29:54.530Z,1648
2016-12-23T12:30:35.059Z,1404
2016-12-23T12:31:15.766Z,1456
2016-12-23T12:31:56.316Z,1468
2016-12-23T12:32:36.804Z,1388
2016-12-23T12:33:17.253Z,1512
2016-12-23T12:33:57.749Z,1420
2016-12-23T12:34:38.249Z,1456
2016-12-23T12:35:18.771Z,1548
2016-12-23T12:35:59.247Z,1500
2016-12-23T12:36:39.734Z,1652
2016-12-23T12:37:20.218Z,1648
2016-12-23T12:38:00.753Z,1568
2016-12-23T12:38:41.251Z,1472
2016-12-23T12:39:21.876Z,1292
2016-12-23T12:40:02.496Z,1564
2016-12-23T12:40:43.016Z,1400
2016-12-23T12:41:23.526Z,1432
2016-12-23T12:42:04.095Z,1520
2016-12-23T12:42:44.467Z,1404
2016-12-23T12:43:24.970Z,1552
2016-12-23T12:44:05.448Z,1644
2016-12-23T12:44:45.988Z,1844
2016-12-23T12:45:26.447Z,1980
2016-12-23T12:46:06.911Z,2036
2016-12-23T12:46:47.528Z,1956
2016-12-23T12:47:28.060Z,2316
2016-12-23T12:48:08.597Z,2164
2016-12-23T12:48:49.125Z,1964
2016-12-23T12:49:29.657Z,2236
2016-12-23T12:50:10.110Z,1772
2016-12-23T12:50:50.594Z,1664
2016-12-23T12:51:31.119Z,1972
2016-12-23T12:52:11.708Z,1784
2016-12-23T12:52:52.327Z,1588
2016-12-23T12:53:32.855Z,1524
2016-12-23T12:54:13.352Z,1952
2016-12-23T12:54:54.004Z,1464
2016-12-23T12:55:34.582Z,988
2016-12-23T12:56:15.056Z,864
2016-12-23T12:56:55.553Z,1144
2016-12-23T12:57:36.004Z,1356
2016-12-23T12:58:16.551Z,1776
2016-12-23T12:58:56.977Z,2012
2016-12-23T12:59:37.454Z,1944
2016-12-23T13:00:17.990Z,1796
2016-12-23T13:00:58.525Z,1756
2016-12-23T13:01:39.023Z,1764
2016-12-23T13:02:20.079Z,1980
2016-12-23T13:03:00.650Z,2192
2016-12-23T13:03:41.137Z,2244
2016-12-23T13:04:21.741Z,1956
2016-12-23T13:05:02.241Z,1732
2016-12-23T13:05:42.685Z,1552
2016-12-23T13:06:23.249Z,1280
2016-12-23T13:07:03.695Z,1320
2016-12-23T13:07:44.187Z,1272
2016-12-23T13:08:24.656Z,1144
2016-12-23T13:09:05.188Z,1088
2016-12-23T13:09:45.861Z,1032
2016-12-23T13:10:26.329Z,1040
2016-12-23T13:11:06.821Z,1088
2016-12-23T13:11:47.504Z,1048
2016-12-23T13:12:28.392Z,1088
2016-12-23T13:13:08.880Z,1104
2016-12-23T13:13:49.500Z,1276
2016-12-23T13:14:29.964Z,1436
2016-12-23T13:15:10.552Z,1476
2016-12-23T13:15:51.020Z,1320
2016-12-23T13:16:31.506Z,1196
2016-12-23T13:17:11.998Z,1076
2016-12-23T13:17:52.483Z,928
2016-12-23T13:18:33.060Z,1184
2016-12-23T13:19:13.549Z,1268
2016-12-23T13:19:54.020Z,1032